Time;durP1;ratioP1;P1;durP2;ratioP2;P2;SDS_P1;SDS_P2;PMS_P1;PMS_P2;Temp;Humidity;BMP_temperature;BMP_pressure;BME280_temperature;BME280_humidity;BME280_pressure;Samples;Min_cycle;Max_cycle;Signal;HPM_P1;HPM_P2
2022/01/31 00:02:14;;;;;;;3.33;1.70;;;;;;;;;;5005288;28;20037;-53
2022/01/31 00:04:39;;;;;;;2.17;1.15;;;;;;;;;;5005441;28;20029;-52
2022/01/31 00:07:05;;;;;;;3.13;1.40;;;;;;;;;;5005956;28;20041;-51
2022/01/31 00:09:30;;;;;;;2.42;1.10;;;;;;;;;;5005982;28;20065;-51
2022/01/31 00:12:00;;;;;;;2.10;1.17;;;;;;;;;;5006365;28;20414;-53
2022/01/31 00:14:36;;;;;;;1.90;1.08;;;;;;;;;;5006858;28;20604;-51
2022/01/31 00:17:02;;;;;;;3.78;1.15;;;;;;;;;;5005893;28;20092;-51
2022/01/31 00:19:28;;;;;;;3.13;1.20;;;;;;;;;;5005386;28;20030;-52
2022/01/31 00:21:53;;;;;;;2.33;1.17;;;;;;;;;;5005627;28;20026;-51
2022/01/31 00:24:18;;;;;;;3.28;1.38;;;;;;;;;;5005258;28;20026;-52
2022/01/31 00:26:43;;;;;;;2.03;1.10;;;;;;;;;;5005110;28;20030;-54
2022/01/31 00:29:09;;;;;;;2.88;1.20;;;;;;;;;;5004853;28;20794;-52
2022/01/31 00:31:34;;;;;;;2.40;1.30;;;;;;;;;;5004919;28;20034;-53
2022/01/31 00:33:59;;;;;;;2.67;1.23;;;;;;;;;;5000530;28;20113;-50
2022/01/31 00:36:24;;;;;;;2.10;1.00;;;;;;;;;;5005094;28;21141;-51
2022/01/31 00:38:49;;;;;;;2.23;1.17;;;;;;;;;;5004695;28;20558;-51
2022/01/31 00:41:15;;;;;;;3.10;1.37;;;;;;;;;;5004783;28;20995;-51
2022/01/31 00:43:41;;;;;;;3.50;1.30;;;;;;;;;;5004520;28;20518;-51
2022/01/31 00:46:12;;;;;;;2.42;1.30;;;;;;;;;;5004626;28;20273;-51
2022/01/31 00:48:43;;;;;;;2.45;1.13;;;;;;;;;;5004525;28;20030;-50
2022/01/31 00:51:09;;;;;;;2.40;1.13;;;;;;;;;;5003886;28;20038;-50
2022/01/31 00:53:34;;;;;;;2.20;1.33;;;;;;;;;;5004347;28;20029;-50
2022/01/31 00:56:00;;;;;;;2.13;1.17;;;;;;;;;;5004063;28;20029;-50
2022/01/31 00:58:25;;;;;;;2.53;1.25;;;;;;;;;;5004685;28;20022;-50
2022/01/31 01:00:50;;;;;;;2.60;1.27;;;;;;;;;;5004208;28;20112;-50
2022/01/31 01:03:15;;;;;;;2.60;1.00;;;;;;;;;;5002784;28;20287;-52
2022/01/31 01:05:40;;;;;;;1.97;1.13;;;;;;;;;;5004231;28;20277;-51
2022/01/31 01:08:06;;;;;;;3.03;1.30;;;;;;;;;;5003818;28;20285;-52
2022/01/31 01:10:31;;;;;;;2.00;1.17;;;;;;;;;;5004396;28;20029;-51
2022/01/31 01:12:56;;;;;;;3.03;1.10;;;;;;;;;;5004207;28;20319;-51
2022/01/31 01:15:21;;;;;;;2.33;1.17;;;;;;;;;;5004056;28;20277;-50
2022/01/31 01:17:47;;;;;;;3.83;1.40;;;;;;;;;;5004157;28;20288;-52
2022/01/31 01:20:15;;;;;;;2.53;1.27;;;;;;;;;;5003857;28;20383;-51
2022/01/31 01:22:40;;;;;;;3.10;1.10;;;;;;;;;;5003776;28;20170;-51
2022/01/31 01:25:06;;;;;;;2.38;0.90;;;;;;;;;;5003709;28;20055;-52
2022/01/31 01:27:32;;;;;;;3.15;1.52;;;;;;;;;;5003746;28;20492;-51
2022/01/31 01:29:57;;;;;;;1.88;1.30;;;;;;;;;;5003579;28;20044;-52
2022/01/31 01:32:24;;;;;;;2.50;1.13;;;;;;;;;;5003491;28;20105;-51
2022/01/31 01:34:49;;;;;;;2.63;1.10;;;;;;;;;;5003647;28;20257;-52
2022/01/31 01:37:14;;;;;;;2.40;1.00;;;;;;;;;;5003907;28;20664;-51
2022/01/31 01:39:41;;;;;;;2.67;1.13;;;;;;;;;;5003366;28;20060;-51
2022/01/31 01:42:06;;;;;;;2.60;1.27;;;;;;;;;;5003336;28;20348;-53
2022/01/31 01:44:38;;;;;;;1.75;1.00;;;;;;;;;;5003619;28;20511;-52
2022/01/31 01:47:03;;;;;;;2.63;1.20;;;;;;;;;;5003472;28;20385;-52
2022/01/31 01:49:28;;;;;;;2.58;1.15;;;;;;;;;;5003504;28;20111;-52
2022/01/31 01:51:54;;;;;;;2.43;1.03;;;;;;;;;;5003378;28;20049;-51
2022/01/31 01:54:19;;;;;;;2.53;1.03;;;;;;;;;;5001554;28;20281;-52
2022/01/31 01:56:44;;;;;;;2.73;1.30;;;;;;;;;;5003310;28;20080;-52
2022/01/31 01:59:10;;;;;;;2.23;1.27;;;;;;;;;;5003548;28;20351;-52
2022/01/31 02:01:35;;;;;;;2.58;1.00;;;;;;;;;;5002605;28;20084;-51
2022/01/31 02:04:00;;;;;;;2.27;1.10;;;;;;;;;;5002929;28;20535;-52
2022/01/31 02:06:26;;;;;;;2.60;1.00;;;;;;;;;;5002502;28;20160;-51
2022/01/31 02:08:51;;;;;;;1.83;1.03;;;;;;;;;;5002806;28;20048;-50
2022/01/31 02:11:20;;;;;;;1.90;1.13;;;;;;;;;;5002972;28;20116;-52
2022/01/31 02:13:45;;;;;;;2.60;1.00;;;;;;;;;;5002957;28;20346;-53
2022/01/31 02:16:10;;;;;;;2.43;1.13;;;;;;;;;;5003689;28;20030;-52
2022/01/31 02:18:43;;;;;;;2.13;1.00;;;;;;;;;;5004682;28;20083;-52
2022/01/31 02:21:09;;;;;;;1.92;0.77;;;;;;;;;;5004549;28;20045;-52
2022/01/31 02:23:34;;;;;;;3.03;1.02;;;;;;;;;;5002658;28;20497;-51
2022/01/31 02:26:01;;;;;;;4.22;1.48;;;;;;;;;;5002959;28;20022;-51
2022/01/31 02:28:27;;;;;;;2.05;1.02;;;;;;;;;;5002311;28;20478;-52
2022/01/31 02:30:52;;;;;;;3.00;1.30;;;;;;;;;;5003015;28;20034;-51
2022/01/31 02:33:18;;;;;;;4.72;0.90;;;;;;;;;;5002557;28;20034;-51
2022/01/31 02:35:45;;;;;;;1.88;0.85;;;;;;;;;;5002417;28;20389;-53
2022/01/31 02:38:10;;;;;;;3.42;1.23;;;;;;;;;;5002647;28;20042;-51
2022/01/31 02:40:35;;;;;;;4.33;1.10;;;;;;;;;;5003806;28;20109;-50
2022/01/31 02:43:00;;;;;;;1.77;1.23;;;;;;;;;;5005000;28;20028;-50
2022/01/31 02:45:30;;;;;;;2.63;1.08;;;;;;;;;;5005179;28;20269;-51
2022/01/31 02:47:57;;;;;;;1.55;0.98;;;;;;;;;;5004330;28;20546;-51
2022/01/31 02:50:23;;;;;;;2.33;0.95;;;;;;;;;;5001959;28;20432;-51
2022/01/31 02:52:57;;;;;;;3.55;1.35;;;;;;;;;;5002185;28;20034;-51
2022/01/31 02:55:22;;;;;;;1.75;1.10;;;;;;;;;;5001935;28;20029;-51
2022/01/31 02:57:47;;;;;;;2.00;0.90;;;;;;;;;;5002111;28;20036;-50
2022/01/31 03:00:13;;;;;;;1.70;0.80;;;;;;;;;;5001662;28;20265;-50
2022/01/31 03:02:38;;;;;;;1.85;0.95;;;;;;;;;;5001562;28;20026;-52
2022/01/31 03:05:04;;;;;;;2.40;0.90;;;;;;;;;;5001615;28;20057;-50
2022/01/31 03:07:30;;;;;;;2.33;1.00;;;;;;;;;;5001637;28;20038;-51
2022/01/31 03:09:55;;;;;;;2.67;1.10;;;;;;;;;;5001698;28;20033;-50
2022/01/31 03:12:21;;;;;;;2.47;0.87;;;;;;;;;;5001375;28;20033;-52
2022/01/31 03:14:47;;;;;;;2.25;1.00;;;;;;;;;;5004866;28;20064;-50
2022/01/31 03:17:12;;;;;;;1.73;0.90;;;;;;;;;;5005513;28;20058;-51
2022/01/31 03:19:39;;;;;;;2.03;1.15;;;;;;;;;;5018071;28;20276;-50
2022/01/31 03:22:05;;;;;;;2.45;0.90;;;;;;;;;;5025439;28;20029;-50
2022/01/31 03:24:30;;;;;;;2.28;0.98;;;;;;;;;;5025253;28;20510;-50
2022/01/31 03:26:55;;;;;;;2.23;1.00;;;;;;;;;;5018511;28;20022;-51
2022/01/31 03:29:21;;;;;;;2.97;1.20;;;;;;;;;;5005495;28;20307;-50
2022/01/31 03:31:46;;;;;;;1.57;0.80;;;;;;;;;;5005451;28;20775;-51
2022/01/31 03:34:11;;;;;;;2.70;1.00;;;;;;;;;;5006446;28;20710;-51
2022/01/31 03:36:36;;;;;;;2.30;1.00;;;;;;;;;;5025275;28;20268;-51
2022/01/31 03:39:01;;;;;;;2.30;0.97;;;;;;;;;;5025521;28;20276;-51
2022/01/31 03:41:27;;;;;;;1.88;1.00;;;;;;;;;;5025539;28;20296;-51
2022/01/31 03:43:52;;;;;;;3.38;0.90;;;;;;;;;;5024902;28;20029;-50
2022/01/31 03:46:17;;;;;;;3.20;1.08;;;;;;;;;;5023672;28;20041;-51
2022/01/31 03:48:44;;;;;;;2.55;1.08;;;;;;;;;;5005457;28;20041;-50
2022/01/31 03:51:09;;;;;;;3.05;0.88;;;;;;;;;;5005379;28;20052;-50
2022/01/31 03:53:34;;;;;;;2.77;0.90;;;;;;;;;;5005474;28;20022;-50
2022/01/31 03:55:59;;;;;;;2.28;0.90;;;;;;;;;;5005444;28;20095;-51
2022/01/31 03:58:24;;;;;;;2.30;1.00;;;;;;;;;;5003035;28;20022;-50
2022/01/31 04:00:50;;;;;;;2.00;0.80;;;;;;;;;;5005447;28;20038;-51
2022/01/31 04:03:15;;;;;;;1.93;1.03;;;;;;;;;;5005227;28;20683;-51
2022/01/31 04:05:40;;;;;;;3.30;1.25;;;;;;;;;;5005068;28;20335;-51
2022/01/31 04:08:06;;;;;;;2.43;1.00;;;;;;;;;;5004998;28;20038;-51
2022/01/31 04:10:32;;;;;;;1.85;0.80;;;;;;;;;;5005013;28;20307;-51
2022/01/31 04:12:57;;;;;;;2.28;1.13;;;;;;;;;;5005221;28;20026;-50
2022/01/31 04:15:22;;;;;;;2.05;0.90;;;;;;;;;;5005247;28;20037;-51
2022/01/31 04:17:48;;;;;;;2.97;1.03;;;;;;;;;;5018913;28;20470;-51
2022/01/31 04:20:14;;;;;;;1.85;0.80;;;;;;;;;;5024646;28;20375;-51
2022/01/31 04:22:48;;;;;;;3.05;1.05;;;;;;;;;;5024454;28;20021;-52
2022/01/31 04:25:28;;;;;;;1.90;0.90;;;;;;;;;;5023689;28;20029;-51
2022/01/31 04:28:01;;;;;;;;;;;;;;;;;;5010711;28;20117;-51
2022/01/31 04:30:26;;;;;;;2.03;1.05;;;;;;;;;;5004457;28;20223;-51
2022/01/31 04:32:51;;;;;;;2.22;0.98;;;;;;;;;;5004470;28;20044;-53
2022/01/31 04:35:17;;;;;;;2.47;0.90;;;;;;;;;;5004983;28;20036;-51
2022/01/31 04:37:42;;;;;;;2.03;1.10;;;;;;;;;;5004756;28;20033;-51
2022/01/31 04:40:13;;;;;;;2.17;0.90;;;;;;;;;;5004886;28;20622;-54
2022/01/31 04:42:38;;;;;;;1.58;0.85;;;;;;;;;;5004713;28;20273;-52
2022/01/31 04:45:04;;;;;;;2.60;1.10;;;;;;;;;;5004619;28;20088;-51
2022/01/31 04:47:29;;;;;;;1.92;0.70;;;;;;;;;;5004460;28;20273;-51
2022/01/31 04:49:54;;;;;;;1.80;1.03;;;;;;;;;;5004441;28;20129;-51
2022/01/31 04:52:19;;;;;;;1.67;0.87;;;;;;;;;;5004377;28;20112;-50
2022/01/31 04:54:44;;;;;;;2.50;0.90;;;;;;;;;;5004353;28;20092;-51
2022/01/31 04:57:10;;;;;;;2.70;0.90;;;;;;;;;;5004284;28;20284;-50
2022/01/31 04:59:41;;;;;;;1.65;0.80;;;;;;;;;;5004288;28;20026;-50
2022/01/31 05:02:06;;;;;;;3.40;1.00;;;;;;;;;;5004103;28;20052;-50
2022/01/31 05:04:31;;;;;;;2.17;0.80;;;;;;;;;;5003913;28;20871;-50
2022/01/31 05:06:57;;;;;;;1.60;0.80;;;;;;;;;;5004023;28;20523;-50
2022/01/31 05:09:22;;;;;;;2.22;0.88;;;;;;;;;;5004177;28;20030;-50
2022/01/31 05:11:48;;;;;;;2.13;0.90;;;;;;;;;;5004041;28;20033;-50
2022/01/31 05:14:16;;;;;;;1.50;0.85;;;;;;;;;;5003739;28;20293;-51
2022/01/31 05:16:41;;;;;;;1.63;0.82;;;;;;;;;;5004006;28;20026;-51
2022/01/31 05:19:06;;;;;;;1.90;1.00;;;;;;;;;;5003949;28;20101;-51
2022/01/31 05:21:31;;;;;;;2.20;0.93;;;;;;;;;;5004256;28;20095;-52
2022/01/31 05:23:56;;;;;;;2.17;1.02;;;;;;;;;;5003707;28;20404;-51
2022/01/31 05:26:22;;;;;;;2.30;0.80;;;;;;;;;;5003501;28;20526;-51
2022/01/31 05:28:47;;;;;;;2.13;0.90;;;;;;;;;;5003564;28;20030;-50
2022/01/31 05:31:12;;;;;;;1.73;0.83;;;;;;;;;;5003527;28;20293;-51
2022/01/31 05:33:37;;;;;;;2.28;1.00;;;;;;;;;;5003693;28;20283;-51
2022/01/31 05:36:03;;;;;;;1.80;0.85;;;;;;;;;;5003601;28;20030;-51
2022/01/31 05:38:28;;;;;;;1.80;0.60;;;;;;;;;;5003416;28;20557;-51
2022/01/31 05:40:53;;;;;;;2.33;0.90;;;;;;;;;;5003527;28;20518;-51
2022/01/31 05:43:19;;;;;;;2.17;0.87;;;;;;;;;;5003479;28;20057;-51
2022/01/31 05:45:45;;;;;;;2.25;0.80;;;;;;;;;;5003456;28;20273;-52
2022/01/31 05:48:10;;;;;;;1.88;0.70;;;;;;;;;;5003370;28;20404;-51
2022/01/31 05:50:35;;;;;;;2.17;0.80;;;;;;;;;;5003250;28;20056;-50
2022/01/31 05:53:00;;;;;;;2.57;0.87;;;;;;;;;;5009862;28;20402;-50
2022/01/31 05:55:25;;;;;;;3.80;0.73;;;;;;;;;;5021638;28;20108;-51
2022/01/31 05:57:51;;;;;;;1.67;0.77;;;;;;;;;;5023059;28;20095;-51
2022/01/31 06:00:16;;;;;;;3.58;0.80;;;;;;;;;;5022785;28;20273;-50
2022/01/31 06:02:41;;;;;;;2.20;0.77;;;;;;;;;;5022479;28;20013;-50
2022/01/31 06:05:07;;;;;;;2.37;0.90;;;;;;;;;;5022512;28;20057;-51
2022/01/31 06:07:32;;;;;;;2.08;0.88;;;;;;;;;;5011903;28;20288;-51
2022/01/31 06:09:57;;;;;;;1.53;0.70;;;;;;;;;;5002978;28;20563;-50
2022/01/31 06:12:23;;;;;;;2.33;0.70;;;;;;;;;;5002803;28;20614;-50
2022/01/31 06:14:48;;;;;;;1.67;0.70;;;;;;;;;;5003001;28;20104;-51
2022/01/31 06:17:13;;;;;;;2.17;0.73;;;;;;;;;;5003050;28;20021;-50
2022/01/31 06:19:38;;;;;;;2.73;1.00;;;;;;;;;;5002731;28;20264;-51
2022/01/31 06:22:04;;;;;;;1.77;0.80;;;;;;;;;;5002999;28;20032;-52
2022/01/31 06:24:29;;;;;;;1.57;0.73;;;;;;;;;;5002336;28;20030;-51
2022/01/31 06:26:54;;;;;;;2.00;0.70;;;;;;;;;;5002741;28;20272;-50
2022/01/31 06:29:20;;;;;;;2.13;0.82;;;;;;;;;;5002650;28;20040;-49
2022/01/31 06:31:45;;;;;;;1.50;0.70;;;;;;;;;;5002824;28;20515;-50
2022/01/31 06:34:10;;;;;;;2.00;0.77;;;;;;;;;;5002903;28;20104;-51
2022/01/31 06:36:35;;;;;;;2.33;0.80;;;;;;;;;;5002648;28;20026;-52
2022/01/31 06:39:01;;;;;;;1.40;0.70;;;;;;;;;;5002941;28;20101;-51
2022/01/31 06:41:26;;;;;;;1.77;0.70;;;;;;;;;;5002633;28;20101;-51
2022/01/31 06:43:52;;;;;;;3.13;1.10;;;;;;;;;;5002584;28;20100;-51
2022/01/31 06:46:17;;;;;;;2.30;0.90;;;;;;;;;;5001120;28;20022;-50
2022/01/31 06:48:42;;;;;;;1.58;0.60;;;;;;;;;;5004092;28;20034;-52
2022/01/31 06:51:08;;;;;;;2.42;0.80;;;;;;;;;;5006362;28;20091;-51
2022/01/31 06:53:33;;;;;;;7.43;1.20;;;;;;;;;;5006022;28;20045;-51
2022/01/31 06:55:59;;;;;;;6.38;1.42;;;;;;;;;;5006273;28;20041;-51
2022/01/31 06:58:24;;;;;;;5.75;1.20;;;;;;;;;;5006429;28;20037;-51
2022/01/31 07:00:50;;;;;;;6.93;1.30;;;;;;;;;;5006390;28;20129;-51
2022/01/31 07:03:15;;;;;;;6.55;1.30;;;;;;;;;;5006312;28;20346;-53
2022/01/31 07:05:40;;;;;;;5.40;1.17;;;;;;;;;;5006114;28;20084;-51
2022/01/31 07:08:06;;;;;;;8.65;1.65;;;;;;;;;;5006566;28;20033;-51
2022/01/31 07:10:32;;;;;;;9.32;1.73;;;;;;;;;;5005970;28;20259;-51
2022/01/31 07:12:58;;;;;;;6.50;1.40;;;;;;;;;;5006444;28;20033;-50
2022/01/31 07:15:23;;;;;;;6.15;1.60;;;;;;;;;;5006253;28;20484;-51
2022/01/31 07:17:49;;;;;;;7.43;1.47;;;;;;;;;;5006480;28;20030;-52
2022/01/31 07:20:35;;;;;;;12.32;1.45;;;;;;;;;;5006362;28;20799;-52
2022/01/31 07:23:07;;;;;;;6.30;1.33;;;;;;;;;;5006165;28;20364;-50
2022/01/31 07:25:36;;;;;;;5.45;1.40;;;;;;;;;;5006211;28;20563;-50
2022/01/31 07:28:02;;;;;;;7.53;1.52;;;;;;;;;;5005839;28;20053;-52
2022/01/31 07:30:27;;;;;;;7.93;1.77;;;;;;;;;;5002387;28;20064;-52
2022/01/31 07:32:52;;;;;;;7.85;1.42;;;;;;;;;;4986138;28;20031;-51
2022/01/31 07:35:17;;;;;;;8.80;1.30;;;;;;;;;;4968695;28;20531;-52
2022/01/31 07:37:43;;;;;;;8.67;1.60;;;;;;;;;;4993829;28;20902;-51
2022/01/31 07:40:08;;;;;;;7.20;1.43;;;;;;;;;;4987541;28;20463;-51
2022/01/31 07:42:33;;;;;;;6.60;1.25;;;;;;;;;;4989957;28;20504;-51
2022/01/31 07:44:59;;;;;;;10.47;2.53;;;;;;;;;;5003220;28;20025;-51
2022/01/31 07:47:24;;;;;;;8.95;1.73;;;;;;;;;;5005077;28;20330;-51
2022/01/31 07:49:51;;;;;;;8.83;1.73;;;;;;;;;;5002246;28;20049;-51
2022/01/31 07:52:16;;;;;;;8.63;1.70;;;;;;;;;;5004823;28;20087;-52
2022/01/31 07:54:43;;;;;;;7.97;1.70;;;;;;;;;;5005353;28;20550;-50
2022/01/31 07:57:08;;;;;;;8.88;1.67;;;;;;;;;;5005274;28;20265;-51
2022/01/31 07:59:34;;;;;;;6.47;1.95;;;;;;;;;;5005341;28;20041;-51
2022/01/31 08:01:59;;;;;;;6.97;1.67;;;;;;;;;;5005347;28;20022;-53
2022/01/31 08:04:24;;;;;;;11.37;2.40;;;;;;;;;;5005383;28;20554;-51
2022/01/31 08:06:49;;;;;;;6.80;1.80;;;;;;;;;;5005098;28;20368;-51
2022/01/31 08:09:15;;;;;;;8.30;1.87;;;;;;;;;;5004997;28;20124;-51
2022/01/31 08:11:40;;;;;;;9.37;2.00;;;;;;;;;;5004994;28;20053;-52
2022/01/31 08:14:07;;;;;;;6.78;1.70;;;;;;;;;;5004453;28;20057;-52
2022/01/31 08:16:33;;;;;;;9.20;1.65;;;;;;;;;;5005707;28;20032;-50
2022/01/31 08:18:58;;;;;;;9.07;2.10;;;;;;;;;;5007428;28;20025;-52
2022/01/31 08:21:24;;;;;;;7.18;1.67;;;;;;;;;;4999800;28;20091;-51
2022/01/31 08:23:49;;;;;;;11.05;1.90;;;;;;;;;;4996783;28;20022;-52
2022/01/31 08:26:16;;;;;;;11.43;1.80;;;;;;;;;;5006179;28;20042;-52
2022/01/31 08:28:46;;;;;;;8.63;1.92;;;;;;;;;;5004493;28;20273;-52
2022/01/31 08:31:22;;;;;;;11.73;2.10;;;;;;;;;;4997401;28;20524;-53
2022/01/31 08:34:05;;;;;;;7.78;1.80;;;;;;;;;;4985304;28;20123;-50
2022/01/31 08:36:34;;;;;;;8.40;2.00;;;;;;;;;;4999199;28;20062;-51
2022/01/31 08:38:59;;;;;;;10.75;2.58;;;;;;;;;;5005145;28;20130;-52
2022/01/31 08:41:24;;;;;;;8.90;2.50;;;;;;;;;;5000538;28;20109;-51
2022/01/31 08:43:49;;;;;;;8.45;1.92;;;;;;;;;;4997295;28;20026;-52
2022/01/31 08:46:15;;;;;;;7.57;2.35;;;;;;;;;;4971322;28;20861;-52
2022/01/31 08:48:40;;;;;;;12.02;1.95;;;;;;;;;;5003774;28;20024;-52
2022/01/31 08:51:06;;;;;;;6.70;1.92;;;;;;;;;;5004159;28;20171;-51
2022/01/31 08:53:32;;;;;;;5.60;1.88;;;;;;;;;;4996804;28;20083;-51
2022/01/31 08:56:04;;;;;;;7.03;1.75;;;;;;;;;;4987848;28;20603;-51
2022/01/31 08:58:30;;;;;;;7.30;2.13;;;;;;;;;;5002897;28;20503;-50
2022/01/31 09:01:00;;;;;;;7.35;2.80;;;;;;;;;;4986673;28;20041;-51
2022/01/31 09:06:03;;;;;;;8.40;2.15;;;;;;;;;;4987662;28;21406;-52
2022/01/31 09:08:28;;;;;;;11.88;2.28;;;;;;;;;;5002159;28;20034;-51
2022/01/31 09:10:53;;;;;;;6.53;1.90;;;;;;;;;;5003802;28;20526;-50
2022/01/31 09:13:19;;;;;;;5.37;1.90;;;;;;;;;;5004025;28;20014;-52
2022/01/31 09:15:44;;;;;;;6.75;2.28;;;;;;;;;;5004347;28;20515;-51
2022/01/31 09:18:09;;;;;;;8.73;1.77;;;;;;;;;;5005921;28;20059;-50
2022/01/31 09:20:35;;;;;;;8.60;1.97;;;;;;;;;;5007719;28;20261;-51
2022/01/31 09:23:02;;;;;;;7.28;1.75;;;;;;;;;;5009761;28;20010;-52
2022/01/31 09:25:28;;;;;;;9.23;2.17;;;;;;;;;;5008627;28;20508;-50
2022/01/31 09:27:53;;;;;;;6.22;1.90;;;;;;;;;;5011039;28;20030;-50
2022/01/31 09:30:21;;;;;;;7.57;1.80;;;;;;;;;;4995291;28;20030;-52
2022/01/31 09:32:46;;;;;;;6.20;1.65;;;;;;;;;;4992871;28;20025;-50
2022/01/31 09:35:12;;;;;;;6.47;2.13;;;;;;;;;;5009199;28;20020;-51
2022/01/31 09:37:37;;;;;;;5.18;1.77;;;;;;;;;;4996749;28;20097;-50
2022/01/31 09:40:04;;;;;;;6.95;1.70;;;;;;;;;;4987443;28;20022;-50
2022/01/31 09:42:37;;;;;;;6.97;1.70;;;;;;;;;;4986871;28;20022;-51
2022/01/31 09:45:10;;;;;;;7.82;2.08;;;;;;;;;;4986611;28;20520;-51
2022/01/31 09:50:19;;;;;;;6.55;2.05;;;;;;;;;;4987434;28;20126;-50
2022/01/31 09:52:44;;;;;;;5.57;1.33;;;;;;;;;;4983508;28;20105;-50
2022/01/31 09:55:10;;;;;;;7.57;2.40;;;;;;;;;;4990585;28;20033;-51
2022/01/31 09:57:35;;;;;;;8.97;2.30;;;;;;;;;;4993129;28;20097;-51
2022/01/31 10:00:00;;;;;;;7.73;1.60;;;;;;;;;;4984435;28;20038;-53
2022/01/31 10:02:25;;;;;;;5.53;1.63;;;;;;;;;;4983202;28;20275;-52
2022/01/31 10:04:50;;;;;;;5.23;1.97;;;;;;;;;;5001548;28;20268;-51
2022/01/31 10:07:16;;;;;;;3.80;1.80;;;;;;;;;;5002037;28;20053;-52
2022/01/31 10:09:45;;;;;;;7.25;1.88;;;;;;;;;;5002419;28;20495;-52
2022/01/31 10:12:21;;;;;;;4.65;1.50;;;;;;;;;;5001870;28;20087;-52
2022/01/31 10:17:31;;;;;;;4.05;1.55;;;;;;;;;;5002652;28;20052;-52
2022/01/31 10:19:57;;;;;;;4.32;1.33;;;;;;;;;;5002213;28;20030;-52
2022/01/31 10:22:23;;;;;;;5.05;1.23;;;;;;;;;;5002091;28;20026;-51
2022/01/31 10:24:49;;;;;;;4.72;1.40;;;;;;;;;;4999252;28;20080;-51
2022/01/31 10:27:14;;;;;;;5.82;1.55;;;;;;;;;;5001679;28;20033;-52
2022/01/31 10:29:40;;;;;;;4.50;1.87;;;;;;;;;;4994512;28;20038;-50
2022/01/31 10:32:09;;;;;;;5.25;1.30;;;;;;;;;;4994779;28;20268;-50
2022/01/31 10:34:55;;;;;;;5.35;1.52;;;;;;;;;;5001976;28;20049;-51
2022/01/31 10:37:21;;;;;;;5.25;1.65;;;;;;;;;;4994801;28;20034;-51
2022/01/31 10:51:27;;;;;;;4.45;1.70;;;;;;;;;;4999904;28;20561;-50
2022/01/31 10:56:25;;;;;;;3.00;1.30;;;;;;;;;;5001962;28;20099;-51
2022/01/31 10:59:00;;;;;;;4.05;1.38;;;;;;;;;;5002306;28;20538;-51
2022/01/31 11:01:25;;;;;;;4.50;1.38;;;;;;;;;;5002551;28;20026;-51
2022/01/31 11:03:51;;;;;;;3.72;1.40;;;;;;;;;;5002343;28;20029;-53
2022/01/31 11:06:16;;;;;;;4.00;1.60;;;;;;;;;;5002442;28;20057;-53
2022/01/31 11:08:41;;;;;;;3.65;1.40;;;;;;;;;;5002111;28;20018;-53
2022/01/31 11:11:07;;;;;;;3.90;1.40;;;;;;;;;;5002637;28;20483;-53
2022/01/31 11:13:32;;;;;;;4.30;1.10;;;;;;;;;;5003632;28;20021;-51
2022/01/31 11:15:57;;;;;;;2.78;1.30;;;;;;;;;;5002864;28;20022;-52
2022/01/31 11:18:23;;;;;;;6.03;1.40;;;;;;;;;;4987872;28;20026;-53
2022/01/31 11:20:53;;;;;;;5.13;1.52;;;;;;;;;;4983418;28;20262;-52
2022/01/31 11:23:18;;;;;;;;;;;;;;;;;;4983249;28;20524;-53
2022/01/31 11:25:44;;;;;;;3.20;1.30;;;;;;;;;;4983020;28;20380;-53
2022/01/31 11:28:10;;;;;;;3.70;1.30;;;;;;;;;;5001468;28;20590;-52
2022/01/31 11:30:35;;;;;;;3.10;1.27;;;;;;;;;;5002150;28;20296;-52
2022/01/31 11:33:01;;;;;;;3.67;1.33;;;;;;;;;;4998204;28;20953;-52
2022/01/31 11:35:27;;;;;;;3.55;1.30;;;;;;;;;;4997603;28;20379;-52
2022/01/31 11:37:52;;;;;;;3.58;1.30;;;;;;;;;;4997707;28;21071;-52
2022/01/31 11:40:17;;;;;;;5.15;1.55;;;;;;;;;;5002988;28;21054;-51
2022/01/31 11:42:44;;;;;;;4.23;1.50;;;;;;;;;;5005412;28;20424;-51
2022/01/31 11:45:11;;;;;;;5.47;1.48;;;;;;;;;;5001273;28;20889;-50
2022/01/31 11:47:37;;;;;;;3.88;1.48;;;;;;;;;;4995973;28;20033;-51
2022/01/31 11:50:08;;;;;;;4.53;1.25;;;;;;;;;;4997365;28;20038;-52
2022/01/31 11:52:47;;;;;;;5.30;1.30;;;;;;;;;;4985055;28;20018;-52
2022/01/31 11:55:13;;;;;;;4.50;1.30;;;;;;;;;;4988465;28;20411;-52
2022/01/31 11:57:38;;;;;;;3.80;1.20;;;;;;;;;;4985953;28;20140;-55
2022/01/31 12:00:11;;;;;;;3.70;1.02;;;;;;;;;;4985964;28;20468;-52
2022/01/31 12:02:40;;;;;;;4.30;1.10;;;;;;;;;;4986482;28;20105;-51
2022/01/31 12:05:12;;;;;;;2.97;1.00;;;;;;;;;;4985495;28;20011;-55
2022/01/31 12:07:39;;;;;;;3.88;1.20;;;;;;;;;;4985948;28;20453;-61
2022/01/31 12:10:05;;;;;;;3.05;1.10;;;;;;;;;;4985548;28;20497;-60
2022/01/31 12:12:43;;;;;;;2.72;1.05;;;;;;;;;;5001072;28;20015;-61
2022/01/31 12:15:38;;;;;;;2.10;0.88;;;;;;;;;;4986585;28;20480;-52
2022/01/31 12:24:06;;;;;;;5.28;1.48;;;;;;;;;;4987197;28;20670;-55
2022/01/31 12:26:31;;;;;;;374.38;277.15;;;;;;;;;;4986085;28;20523;-55
2022/01/31 12:28:57;;;;;;;1382.25;821.33;;;;;;;;;;4983870;28;20061;-53
2022/01/31 12:31:30;;;;;;;69.35;28.70;;;;;;;;;;4992556;28;20036;-57
2022/01/31 12:33:55;;;;;;;5.25;2.05;;;;;;;;;;5004574;28;20092;-60
2022/01/31 12:36:35;;;;;;;4.75;1.05;;;;;;;;;;5004522;28;20041;-54
2022/01/31 12:39:04;;;;;;;55.78;24.77;;;;;;;;;;4989455;28;20022;-53
2022/01/31 12:41:30;;;;;;;3.53;1.05;;;;;;;;;;4999910;28;20081;-57
2022/01/31 12:44:31;;;;;;;4.38;1.10;;;;;;;;;;4996214;28;20057;-59
2022/01/31 12:47:11;;;;;;;3.35;1.13;;;;;;;;;;4996950;28;20049;-53
2022/01/31 12:49:36;;;;;;;4.45;1.50;;;;;;;;;;5004657;28;20091;-56
2022/01/31 12:52:03;;;;;;;2.53;0.90;;;;;;;;;;5000028;28;20467;-60
2022/01/31 12:54:29;;;;;;;3.85;1.25;;;;;;;;;;5000722;28;20810;-59
2022/01/31 12:56:54;;;;;;;4.07;1.20;;;;;;;;;;4988157;28;20264;-59
2022/01/31 12:59:20;;;;;;;3.30;0.95;;;;;;;;;;4997510;28;20484;-56
2022/01/31 13:01:49;;;;;;;4.13;1.30;;;;;;;;;;4984902;28;21164;-60
2022/01/31 13:04:19;;;;;;;4.88;1.30;;;;;;;;;;4984740;28;20026;-58
2022/01/31 13:06:45;;;;;;;4.72;1.20;;;;;;;;;;4991628;28;20424;-57
2022/01/31 13:09:15;;;;;;;5.72;1.30;;;;;;;;;;5004188;28;20571;-59
2022/01/31 13:11:41;;;;;;;5.35;1.23;;;;;;;;;;5004298;28;20152;-58
2022/01/31 13:14:08;;;;;;;3.33;1.20;;;;;;;;;;5004105;28;20018;-56
2022/01/31 13:16:36;;;;;;;5.05;1.13;;;;;;;;;;5003095;28;20030;-59
2022/01/31 13:19:09;;;;;;;3.38;1.15;;;;;;;;;;4991985;28;20100;-57
2022/01/31 13:21:35;;;;;;;4.40;1.35;;;;;;;;;;5010420;28;20034;-65
2022/01/31 13:24:00;;;;;;;6.13;1.27;;;;;;;;;;4982884;28;20157;-57
2022/01/31 13:26:25;;;;;;;4.80;1.10;;;;;;;;;;4984293;28;20051;-66
2022/01/31 13:28:50;;;;;;;3.30;1.27;;;;;;;;;;5002864;28;20288;-60
2022/01/31 13:31:16;;;;;;;5.27;1.30;;;;;;;;;;5003851;28;20042;-57
2022/01/31 13:33:44;;;;;;;2.83;0.95;;;;;;;;;;5003619;28;20818;-54
2022/01/31 13:36:10;;;;;;;2.80;0.98;;;;;;;;;;5003587;28;20037;-61
2022/01/31 13:38:35;;;;;;;3.25;0.90;;;;;;;;;;4986668;28;20026;-53
2022/01/31 13:41:00;;;;;;;4.70;1.00;;;;;;;;;;4984336;28;20110;-59
2022/01/31 13:43:28;;;;;;;4.22;1.00;;;;;;;;;;4984049;28;20273;-59
2022/01/31 13:46:07;;;;;;;3.15;0.90;;;;;;;;;;4995427;28;20057;-59
2022/01/31 13:49:10;;;;;;;3.30;1.38;;;;;;;;;;5003088;28;20026;-62
2022/01/31 13:51:29;;;;;;;4.93;1.20;;;;;;;;;;5002974;28;20045;-56
2022/01/31 13:53:55;;;;;;;3.40;1.00;;;;;;;;;;5003330;28;20164;-60
2022/01/31 13:56:20;;;;;;;3.65;0.90;;;;;;;;;;5003417;28;20120;-60
2022/01/31 13:58:54;;;;;;;6.07;1.13;;;;;;;;;;4983450;28;20022;-57
2022/01/31 14:01:20;;;;;;;3.95;1.00;;;;;;;;;;4983648;28;20057;-59
2022/01/31 14:03:45;;;;;;;4.35;1.38;;;;;;;;;;4983486;28;21376;-57
2022/01/31 14:06:11;;;;;;;3.97;0.93;;;;;;;;;;4983431;28;20191;-52
2022/01/31 14:08:39;;;;;;;2.95;1.02;;;;;;;;;;4999957;28;20044;-55
2022/01/31 14:11:20;;;;;;;4.68;0.90;;;;;;;;;;5003120;28;20030;-60
2022/01/31 14:14:04;;;;;;;4.10;1.25;;;;;;;;;;5002988;28;20084;-56
2022/01/31 14:16:30;;;;;;;4.13;1.02;;;;;;;;;;5003087;28;20416;-56
2022/01/31 14:18:56;;;;;;;4.30;1.00;;;;;;;;;;5001623;28;20018;-62
2022/01/31 14:21:22;;;;;;;3.88;0.95;;;;;;;;;;5002547;28;20021;-63
2022/01/31 14:23:49;;;;;;;3.67;1.50;;;;;;;;;;5002332;28;20415;-63
2022/01/31 14:26:16;;;;;;;3.50;1.00;;;;;;;;;;5002025;28;20025;-57
2022/01/31 14:28:42;;;;;;;2.45;1.00;;;;;;;;;;5002044;28;20408;-59
2022/01/31 14:31:07;;;;;;;3.38;0.98;;;;;;;;;;4995614;28;20065;-58
2022/01/31 14:33:33;;;;;;;4.13;1.00;;;;;;;;;;5017661;28;20704;-55
2022/01/31 14:36:08;;;;;;;2.72;0.80;;;;;;;;;;5002287;28;20018;-54
2022/01/31 14:38:46;;;;;;;3.83;1.00;;;;;;;;;;4998797;28;20033;-60
2022/01/31 14:41:30;;;;;;;3.97;0.93;;;;;;;;;;4983892;28;20031;-54
2022/01/31 14:49:23;;;;;;;3.95;1.00;;;;;;;;;;5002524;28;20037;-60
2022/01/31 14:51:50;;;;;;;4.28;1.13;;;;;;;;;;5002685;28;20479;-58
2022/01/31 14:54:15;;;;;;;3.40;1.05;;;;;;;;;;5002540;28;20054;-53
2022/01/31 14:56:41;;;;;;;4.43;1.13;;;;;;;;;;5001408;28;20060;-55
2022/01/31 14:59:06;;;;;;;3.50;1.00;;;;;;;;;;4985642;28;20057;-54
2022/01/31 15:01:31;;;;;;;2.67;0.90;;;;;;;;;;4983886;28;20026;-53
2022/01/31 15:03:57;;;;;;;3.00;1.10;;;;;;;;;;4983552;28;20265;-60
2022/01/31 15:06:22;;;;;;;3.38;0.82;;;;;;;;;;4996978;28;20103;-55
2022/01/31 15:08:47;;;;;;;3.47;1.00;;;;;;;;;;5001716;28;20053;-55
2022/01/31 15:11:12;;;;;;;4.30;0.90;;;;;;;;;;5005635;28;20276;-61
2022/01/31 15:13:38;;;;;;;3.58;1.17;;;;;;;;;;5005795;28;20265;-60
2022/01/31 15:16:06;;;;;;;3.17;1.27;;;;;;;;;;5005887;28;20046;-59